Time;durP1;ratioP1;P1;durP2;ratioP2;P2;SDS_P1;SDS_P2;PMS_P1;PMS_P2;Temp;Humidity;BMP_temperature;BMP_pressure;BME280_temperature;BME280_humidity;BME280_pressure;Samples;Min_cycle;Max_cycle;Signal;HPM_P1;HPM_P2
2022/10/24 00:02:07;;;;;;;17.90;12.30;;;11.50;99.90;;;;;;8418860;28;20278;-69
2022/10/24 00:06:11;;;;;;;16.33;11.67;;;11.50;99.90;;;;;;8417850;28;20204;-69
2022/10/24 00:10:12;;;;;;;14.00;10.13;;;11.50;99.90;;;;;;8397547;28;20173;-69
2022/10/24 00:14:13;;;;;;;11.57;9.83;;;11.50;99.90;;;;;;8420511;28;20189;-71
2022/10/24 00:18:15;;;;;;;15.47;10.63;;;11.60;99.90;;;;;;8401634;28;20279;-68
2022/10/24 00:22:15;;;;;;;15.23;10.80;;;11.50;99.90;;;;;;8419227;28;20191;-68
2022/10/24 00:26:16;;;;;;;11.07;9.07;;;11.50;99.90;;;;;;8401162;28;20220;-69
2022/10/24 00:30:17;;;;;;;13.70;10.40;;;11.60;99.90;;;;;;8400522;28;20191;-69
2022/10/24 00:34:18;;;;;;;14.80;9.87;;;11.60;99.90;;;;;;8401246;28;20165;-69
2022/10/24 00:38:19;;;;;;;12.30;9.30;;;11.60;99.90;;;;;;8400781;28;20199;-69
2022/10/24 00:42:20;;;;;;;10.43;8.27;;;11.50;99.90;;;;;;8420135;28;20184;-69
2022/10/24 00:46:20;;;;;;;10.80;8.27;;;11.50;99.90;;;;;;8401362;28;20231;-69
2022/10/24 00:50:21;;;;;;;10.83;8.53;;;11.50;99.90;;;;;;8395644;28;20385;-70
2022/10/24 00:54:22;;;;;;;11.57;8.20;;;11.50;99.90;;;;;;8399546;28;20192;-68
2022/10/24 00:58:26;;;;;;;12.47;8.87;;;11.50;99.90;;;;;;8416371;28;20212;-69
2022/10/24 01:02:27;;;;;;;10.27;7.60;;;11.50;99.90;;;;;;8398443;28;20263;-68
2022/10/24 01:06:36;;;;;;;10.67;7.57;;;11.50;99.90;;;;;;8414349;28;20205;-68
2022/10/24 01:11:04;;;;;;;8.37;7.00;;;11.50;99.90;;;;;;8399507;28;20181;-69
2022/10/24 01:15:40;;;;;;;8.07;6.47;;;11.50;99.90;;;;;;8417302;28;20190;-69
2022/10/24 01:20:13;;;;;;;14.03;8.03;;;11.50;99.90;;;;;;8397606;28;20196;-70
2022/10/24 01:24:25;;;;;;;9.67;7.77;;;11.50;99.90;;;;;;8400061;28;20261;-71
2022/10/24 01:28:39;;;;;;;7.40;6.53;;;11.40;99.90;;;;;;8397568;28;20181;-69
2022/10/24 01:33:14;;;;;;;7.70;6.57;;;11.30;99.90;;;;;;8413290;28;20184;-70
2022/10/24 01:37:22;;;;;;;8.10;6.77;;;11.20;99.90;;;;;;8416678;28;20181;-70
2022/10/24 01:41:27;;;;;;;8.33;6.47;;;11.10;99.90;;;;;;8417865;28;20188;-68
2022/10/24 01:45:32;;;;;;;7.20;6.00;;;11.00;99.90;;;;;;8396730;28;20584;-69
2022/10/24 01:49:36;;;;;;;9.03;6.87;;;10.80;99.90;;;;;;8395719;28;20333;-69
2022/10/24 01:53:39;;;;;;;9.30;6.60;;;10.70;99.90;;;;;;8417615;28;20188;-69
2022/10/24 01:57:41;;;;;;;12.10;8.40;;;10.60;99.90;;;;;;8397566;28;20227;-69
2022/10/24 02:01:42;;;;;;;12.43;9.70;;;10.60;99.90;;;;;;8398706;28;20482;-69
2022/10/24 02:05:49;;;;;;;14.23;10.37;;;10.50;99.90;;;;;;8398643;28;20323;-73
2022/10/24 02:09:55;;;;;;;13.43;8.90;;;10.50;99.90;;;;;;8398646;28;20240;-69
2022/10/24 02:14:18;;;;;;;9.97;8.03;;;10.40;99.90;;;;;;8416746;28;20244;-69
2022/10/24 02:18:19;;;;;;;8.70;7.03;;;10.20;99.90;;;;;;8402132;28;20193;-69
2022/10/24 02:22:27;;;;;;;6.10;5.00;;;10.00;99.90;;;;;;8399424;28;20202;-69
2022/10/24 02:26:54;;;;;;;6.03;5.07;;;9.80;99.90;;;;;;8399152;28;20205;-69
2022/10/24 02:31:15;;;;;;;5.60;4.87;;;9.70;99.90;;;;;;8398780;28;20263;-71
2022/10/24 02:35:19;;;;;;;5.13;4.57;;;9.60;99.90;;;;;;8417481;28;20307;-68
2022/10/24 02:39:21;;;;;;;6.83;5.77;;;9.60;99.90;;;;;;8415624;28;20429;-69
2022/10/24 02:43:24;;;;;;;6.50;5.87;;;9.60;99.90;;;;;;8415083;28;20250;-69
2022/10/24 02:47:26;;;;;;;6.17;5.57;;;9.70;99.90;;;;;;8402164;28;20194;-69
2022/10/24 02:51:33;;;;;;;6.33;5.00;;;9.70;99.90;;;;;;8405465;28;20184;-69
2022/10/24 02:55:34;;;;;;;5.47;4.50;;;9.70;99.90;;;;;;8401799;28;20230;-70
2022/10/24 02:59:35;;;;;;;6.63;5.03;;;9.70;99.90;;;;;;8403904;28;20200;-69
2022/10/24 03:03:36;;;;;;;7.10;4.77;;;9.70;99.90;;;;;;8405611;28;20296;-70
2022/10/24 03:07:36;;;;;;;7.00;4.33;;;9.80;99.90;;;;;;8423061;28;20187;-69
2022/10/24 03:11:37;;;;;;;7.03;4.23;;;9.80;99.90;;;;;;8401780;28;20187;-69
2022/10/24 03:15:38;;;;;;;5.03;4.53;;;9.80;99.90;;;;;;8401318;28;20194;-73
2022/10/24 03:19:39;;;;;;;6.47;4.37;;;9.90;99.90;;;;;;8399966;28;20192;-69
2022/10/24 03:23:40;;;;;;;5.63;4.80;;;9.90;99.90;;;;;;8416838;28;20219;-69
2022/10/24 03:27:41;;;;;;;6.73;4.60;;;9.90;99.90;;;;;;8419161;28;20298;-70
2022/10/24 03:31:41;;;;;;;8.37;4.33;;;9.90;99.90;;;;;;8399279;28;20192;-69
2022/10/24 03:35:42;;;;;;;7.53;4.97;;;9.90;99.90;;;;;;8399347;28;20229;-70
2022/10/24 03:39:43;;;;;;;5.80;4.63;;;9.90;99.90;;;;;;8399049;28;20286;-70
2022/10/24 03:43:44;;;;;;;7.07;4.80;;;10.00;99.90;;;;;;8396466;28;20208;-69
2022/10/24 03:47:45;;;;;;;8.30;6.67;;;10.00;99.90;;;;;;8398221;28;20188;-70
2022/10/24 03:51:46;;;;;;;11.00;8.83;;;10.00;99.90;;;;;;8397348;28;20206;-69
2022/10/24 03:55:46;;;;;;;11.37;8.57;;;9.90;99.90;;;;;;8397026;28;20179;-69
2022/10/24 03:59:47;;;;;;;13.13;9.20;;;9.90;99.90;;;;;;8412005;28;20209;-71
2022/10/24 04:03:48;;;;;;;12.53;10.07;;;9.80;99.90;;;;;;8417467;28;20214;-69
2022/10/24 04:07:49;;;;;;;11.80;9.50;;;9.70;99.90;;;;;;8420362;28;20179;-69
2022/10/24 04:11:50;;;;;;;20.17;13.43;;;9.60;99.90;;;;;;8396511;28;20179;-69
2022/10/24 04:15:50;;;;;;;6.83;6.13;;;9.60;99.90;;;;;;8418387;28;20231;-69
2022/10/24 04:19:51;;;;;;;6.50;5.53;;;9.50;99.90;;;;;;8402833;28;20236;-70
2022/10/24 04:23:52;;;;;;;9.70;6.93;;;9.30;99.90;;;;;;8419381;28;20317;-69
2022/10/24 04:27:53;;;;;;;10.83;8.00;;;9.10;99.90;;;;;;8416121;28;20207;-68
2022/10/24 04:31:53;;;;;;;8.00;6.33;;;9.00;99.90;;;;;;8418458;28;20179;-69
2022/10/24 04:35:54;;;;;;;8.40;6.40;;;8.90;99.90;;;;;;8400111;28;20186;-68
2022/10/24 04:39:55;;;;;;;10.10;7.90;;;8.90;99.90;;;;;;8401471;28;20176;-69
2022/10/24 04:43:56;;;;;;;9.80;6.47;;;9.00;99.90;;;;;;8400436;28;20203;-69
2022/10/24 04:47:56;;;;;;;7.53;5.90;;;9.00;99.90;;;;;;8416031;28;20176;-69
2022/10/24 04:51:57;;;;;;;8.07;6.63;;;9.00;99.90;;;;;;8421794;28;20267;-69
2022/10/24 04:55:58;;;;;;;7.23;6.07;;;9.10;99.90;;;;;;8400172;28;20185;-69
2022/10/24 04:59:59;;;;;;;8.27;6.20;;;9.30;99.90;;;;;;8400595;28;20270;-70
2022/10/24 05:03:59;;;;;;;8.97;6.97;;;9.60;99.90;;;;;;8400684;28;20214;-69
2022/10/24 05:08:00;;;;;;;9.70;7.30;;;10.00;99.90;;;;;;8396445;28;20202;-70
2022/10/24 05:12:01;;;;;;;11.43;7.60;;;10.40;99.90;;;;;;8417392;28;20222;-69
2022/10/24 05:16:03;;;;;;;10.87;6.80;;;10.60;99.90;;;;;;8416449;28;20183;-71
2022/10/24 05:20:04;;;;;;;8.37;6.77;;;10.80;99.90;;;;;;8400935;28;20388;-71
2022/10/24 05:24:05;;;;;;;8.63;6.40;;;10.90;99.90;;;;;;8397367;28;20199;-70
2022/10/24 05:28:06;;;;;;;12.67;7.77;;;11.10;99.90;;;;;;8419291;28;20184;-70
2022/10/24 05:32:07;;;;;;;7.37;5.90;;;11.20;99.90;;;;;;8399105;28;20256;-70
2022/10/24 05:36:08;;;;;;;8.27;6.10;;;11.20;99.90;;;;;;8414929;28;20318;-70
2022/10/24 05:40:10;;;;;;;8.80;5.93;;;11.20;99.90;;;;;;8399028;28;20212;-69
2022/10/24 05:44:12;;;;;;;10.13;5.60;;;11.30;99.90;;;;;;8416942;28;20192;-71
2022/10/24 05:48:13;;;;;;;8.23;5.47;;;11.30;99.90;;;;;;8409877;28;20225;-70
2022/10/24 05:52:13;;;;;;;7.87;5.60;;;11.40;99.90;;;;;;8412878;28;20189;-71
2022/10/24 05:56:14;;;;;;;8.93;6.17;;;11.50;99.90;;;;;;8410843;28;20199;-71
2022/10/24 06:00:16;;;;;;;7.43;5.47;;;11.60;99.90;;;;;;8395060;28;20231;-70
2022/10/24 06:04:17;;;;;;;6.97;5.83;;;11.80;99.90;;;;;;8395612;28;20308;-71
2022/10/24 06:08:18;;;;;;;8.83;5.53;;;11.80;99.90;;;;;;8395123;28;20180;-71
2022/10/24 06:12:19;;;;;;;8.63;5.37;;;12.00;99.90;;;;;;8412925;28;20188;-71
2022/10/24 06:16:20;;;;;;;10.47;5.87;;;12.10;99.90;;;;;;8395875;28;20184;-70
2022/10/24 06:20:20;;;;;;;7.77;5.17;;;12.30;99.90;;;;;;8424741;28;20192;-71
2022/10/24 06:24:21;;;;;;;7.97;5.53;;;12.50;99.90;;;;;;8408451;28;20200;-70
2022/10/24 06:28:22;;;;;;;8.47;5.23;;;12.70;99.90;;;;;;8410073;28;20730;-70
2022/10/24 06:32:23;;;;;;;6.07;5.00;;;12.90;99.90;;;;;;8411422;28;20180;-70
2022/10/24 06:36:24;;;;;;;9.00;4.93;;;13.10;99.90;;;;;;8408368;28;20278;-70
2022/10/24 06:40:25;;;;;;;8.87;4.80;;;13.30;99.90;;;;;;8413413;28;20195;-75
2022/10/24 06:44:25;;;;;;;7.10;4.57;;;13.50;99.90;;;;;;8433310;28;20220;-71
2022/10/24 06:48:26;;;;;;;5.70;4.23;;;13.60;99.90;;;;;;8432389;28;20188;-71
2022/10/24 06:52:27;;;;;;;10.87;4.30;;;13.80;99.90;;;;;;8412705;28;20187;-71
2022/10/24 06:56:28;;;;;;;5.80;3.57;;;13.90;99.90;;;;;;8415599;28;20404;-71
2022/10/24 07:00:28;;;;;;;6.37;4.03;;;14.10;99.90;;;;;;8415509;28;20188;-70
2022/10/24 07:04:30;;;;;;;6.90;3.90;;;14.20;99.90;;;;;;8428583;28;20226;-69
2022/10/24 07:08:31;;;;;;;6.67;3.73;;;14.30;99.90;;;;;;8431385;28;20197;-70
2022/10/24 07:12:32;;;;;;;4.87;3.60;;;14.30;99.90;;;;;;8431471;28;20176;-71
2022/10/24 07:16:33;;;;;;;5.93;3.70;;;14.40;99.90;;;;;;8431930;28;20185;-70
2022/10/24 07:20:33;;;;;;;5.00;4.03;;;14.40;99.90;;;;;;8412711;28;20215;-71
2022/10/24 07:24:35;;;;;;;6.27;3.80;;;14.40;99.90;;;;;;8412200;28;20204;-72
2022/10/24 07:28:37;;;;;;;8.13;4.37;;;14.40;99.90;;;;;;8428771;28;20188;-71
2022/10/24 07:32:37;;;;;;;6.77;3.70;;;14.50;99.90;;;;;;8422870;28;20267;-71
2022/10/24 07:36:38;;;;;;;6.63;3.80;;;14.50;99.90;;;;;;8422727;28;20192;-71
2022/10/24 07:40:39;;;;;;;7.30;4.27;;;14.60;99.90;;;;;;8422429;28;20187;-71
2022/10/24 07:44:40;;;;;;;8.60;4.13;;;14.80;99.90;;;;;;8421831;28;20246;-70
2022/10/24 07:48:41;;;;;;;5.67;3.50;;;15.00;99.90;;;;;;8401464;28;20187;-70
2022/10/24 07:52:42;;;;;;;8.20;3.70;;;15.20;99.90;;;;;;8405432;28;20177;-71
2022/10/24 07:56:43;;;;;;;6.07;3.33;;;15.40;99.90;;;;;;8403583;28;20242;-71
2022/10/24 08:00:43;;;;;;;6.90;3.23;;;15.60;99.90;;;;;;8418738;28;20200;-71
2022/10/24 08:04:44;;;;;;;6.97;3.13;;;15.80;99.90;;;;;;8392887;28;20311;-70
2022/10/24 08:08:45;;;;;;;8.47;3.70;;;16.00;99.90;;;;;;8418418;28;20180;-71
2022/10/24 08:12:46;;;;;;;6.07;3.60;;;16.20;99.90;;;;;;8408131;28;20172;-71
2022/10/24 08:16:47;;;;;;;5.63;3.50;;;16.40;99.90;;;;;;8400272;28;20483;-69
2022/10/24 08:20:57;;;;;;;6.20;3.43;;;16.50;99.90;;;;;;8418501;28;20774;-71
2022/10/24 08:24:58;;;;;;;9.40;2.90;;;16.60;99.90;;;;;;8402615;28;20212;-71
2022/10/24 08:29:00;;;;;;;4.60;2.90;;;16.50;99.90;;;;;;8424028;28;20188;-70
2022/10/24 08:33:01;;;;;;;4.33;2.80;;;16.70;99.90;;;;;;8404297;28;20208;-71
2022/10/24 08:37:02;;;;;;;4.53;2.50;;;16.80;99.90;;;;;;8404982;28;20203;-72
2022/10/24 08:41:04;;;;;;;8.60;2.90;;;17.00;99.90;;;;;;8423246;28;20185;-71
2022/10/24 08:45:16;;;;;;;7.87;3.00;;;17.10;99.90;;;;;;8419463;28;20247;-70
2022/10/24 08:49:38;;;;;;;6.27;3.07;;;17.30;1.00;;;;;;8422401;28;20191;-72
2022/10/24 08:53:40;;;;;;;5.50;2.70;;;17.30;99.90;;;;;;8407142;28;20212;-70
2022/10/24 08:57:44;;;;;;;4.70;2.57;;;17.30;99.90;;;;;;8404887;28;20200;-71
2022/10/24 09:01:56;;;;;;;4.37;2.97;;;17.30;99.90;;;;;;8425489;28;20276;-71
2022/10/24 09:06:02;;;;;;;5.37;3.03;;;17.50;1.00;;;;;;8407077;28;20213;-71
2022/10/24 09:10:19;;;;;;;7.17;3.03;;;17.70;99.90;;;;;;8428925;28;20203;-71
2022/10/24 09:14:25;;;;;;;5.90;3.30;;;17.90;1.00;;;;;;8421798;28;20219;-70
2022/10/24 09:18:38;;;;;;;5.57;2.83;;;18.00;1.00;;;;;;8423199;28;20270;-71
2022/10/24 09:22:39;;;;;;;5.70;2.20;;;18.30;99.90;;;;;;8427531;28;20199;-69
2022/10/24 09:26:42;;;;;;;7.67;2.60;;;18.50;99.90;;;;;;8405265;28;20208;-70
2022/10/24 09:30:44;;;;;;;4.13;2.40;;;18.60;66.30;;;;;;8420331;28;20191;-70
2022/10/24 09:34:46;;;;;;;4.13;2.10;;;18.80;1.00;;;;;;8423818;28;20185;-72
2022/10/24 09:38:48;;;;;;;5.33;2.00;;;19.00;1.00;;;;;;8401775;28;20180;-70
2022/10/24 09:42:59;;;;;;;3.77;2.10;;;19.30;99.90;;;;;;8407509;28;20180;-70
2022/10/24 09:47:02;;;;;;;4.83;2.13;;;19.50;99.90;;;;;;8400725;28;20213;-70
2022/10/24 09:51:06;;;;;;;2.87;1.70;;;19.80;99.90;;;;;;8404691;28;20180;-70
2022/10/24 09:55:18;;;;;;;2.80;1.70;;;20.10;99.90;;;;;;8403696;28;20337;-69
2022/10/24 09:59:37;;;;;;;4.37;2.20;;;20.50;99.90;;;;;;8421988;28;20264;-71
2022/10/24 10:03:38;;;;;;;7.20;1.90;;;20.90;4.10;;;;;;8425219;28;20184;-70
2022/10/24 10:07:41;;;;;;;3.53;1.90;;;21.10;1.00;;;;;;8420295;28;20233;-72
2022/10/24 10:11:42;;;;;;;2.80;1.57;;;21.30;1.00;;;;;;8406830;28;20176;-70
2022/10/24 10:15:50;;;;;;;8.07;2.17;;;21.40;1.00;;;;;;8415597;28;20184;-70
2022/10/24 10:19:53;;;;;;;4.37;1.80;;;21.50;1.00;;;;;;8422444;28;20184;-69
2022/10/24 10:23:55;;;;;;;7.20;2.30;;;21.70;1.00;;;;;;8402818;28;20196;-70
2022/10/24 10:27:57;;;;;;;6.27;1.90;;;21.90;1.00;;;;;;8404522;28;20212;-72
2022/10/24 10:32:22;;;;;;;4.10;1.63;;;22.00;1.00;;;;;;8423596;28;20233;-71
2022/10/24 10:36:36;;;;;;;5.67;1.87;;;22.20;1.00;;;;;;8419879;28;20196;-70
2022/10/24 10:40:44;;;;;;;5.17;1.90;;;22.30;1.00;;;;;;8421378;28;20265;-69
2022/10/24 10:44:51;;;;;;;5.60;2.03;;;22.30;1.00;;;;;;8408890;28;20276;-71
2022/10/24 10:48:55;;;;;;;6.27;1.80;;;22.30;1.00;;;;;;8410416;28;20297;-72
2022/10/24 10:53:23;;;;;;;8.37;1.97;;;22.30;1.00;;;;;;8408370;28;20260;-71
2022/10/24 10:57:39;;;;;;;7.33;1.93;;;22.40;1.00;;;;;;8423666;28;20208;-68
2022/10/24 11:02:13;;;;;;;4.77;2.20;;;22.40;1.00;;;;;;8408829;28;20189;-70
2022/10/24 11:06:17;;;;;;;5.80;2.17;;;22.50;1.00;;;;;;8411817;28;20342;-69
2022/10/24 11:10:26;;;;;;;7.80;2.00;;;22.60;1.00;;;;;;8432576;28;20191;-68
2022/10/24 11:14:26;;;;;;;5.60;1.70;;;22.60;1.00;;;;;;8413555;28;20191;-70
2022/10/24 11:18:35;;;;;;;7.73;1.70;;;22.50;1.00;;;;;;8409731;28;20260;-71
2022/10/24 11:22:41;;;;;;;6.17;1.97;;;22.20;1.00;;;;;;8420619;28;20332;-70
2022/10/24 11:26:52;;;;;;;5.63;1.63;;;22.10;1.00;;;;;;8421855;28;20215;-68
2022/10/24 11:30:53;;;;;;;6.37;2.10;;;22.20;1.00;;;;;;8403214;28;20180;-69
2022/10/24 11:35:00;;;;;;;4.17;1.70;;;22.40;1.00;;;;;;8409117;28;20275;-71
2022/10/24 11:39:37;;;;;;;6.03;1.63;;;22.60;99.90;;;;;;8407553;28;20203;-70
2022/10/24 11:43:43;;;;;;;4.00;2.10;;;22.80;1.00;;;;;;8424553;28;20181;-71
2022/10/24 11:48:22;;;;;;;4.70;1.67;;;22.80;1.00;;;;;;8428118;28;20193;-70
2022/10/24 11:52:29;;;;;;;5.60;1.93;;;22.70;81.60;;;;;;8421679;28;20197;-70
2022/10/24 11:56:39;;;;;;;6.37;1.90;;;22.40;99.90;;;;;;8407044;28;20176;-71
2022/10/24 12:01:05;;;;;;;4.90;1.73;;;22.20;95.90;;;;;;8405643;28;20188;-70
2022/10/24 12:05:09;;;;;;;6.13;1.97;;;22.10;1.00;;;;;;8409183;28;20208;-70
2022/10/24 12:09:22;;;;;;;4.20;1.83;;;21.90;1.00;;;;;;8412057;28;20208;-70
2022/10/24 12:13:54;;;;;;;4.93;1.53;;;21.70;82.40;;;;;;8429197;28;20201;-69
2022/10/24 12:17:54;;;;;;;9.83;1.60;;;21.60;1.00;;;;;;8409008;28;20187;-69
2022/10/24 12:22:00;;;;;;;7.33;1.53;;;21.40;1.00;;;;;;8412084;28;20204;-71
2022/10/24 12:26:17;;;;;;;8.23;1.70;;;21.40;1.00;;;;;;8425684;28;20200;-71
2022/10/24 12:30:22;;;;;;;6.33;1.90;;;21.40;1.00;;;;;;8407997;28;20185;-70
2022/10/24 12:34:39;;;;;;;5.40;1.80;;;21.20;97.10;;;;;;8426973;28;20184;-70
2022/10/24 12:38:41;;;;;;;4.27;1.57;;;21.10;1.00;;;;;;8411332;28;20181;-71
2022/10/24 12:42:42;;;;;;;6.20;2.07;;;21.10;41.20;;;;;;8424823;28;20514;-71
2022/10/24 12:46:42;;;;;;;5.83;1.70;;;21.20;22.10;;;;;;8407124;28;20490;-71
2022/10/24 12:50:43;;;;;;;7.07;1.80;;;21.30;99.90;;;;;;8420687;28;20184;-71
2022/10/24 12:54:45;;;;;;;5.27;1.80;;;21.40;32.60;;;;;;8400645;28;20573;-70
2022/10/24 12:58:59;;;;;;;5.00;1.83;;;21.40;99.90;;;;;;8401139;28;20239;-71
2022/10/24 13:03:21;;;;;;;4.93;2.07;;;21.20;99.90;;;;;;8419540;28;20204;-71
2022/10/24 13:07:54;;;;;;;6.63;1.90;;;21.10;99.90;;;;;;8402694;28;20212;-72
2022/10/24 13:12:30;;;;;;;4.67;1.73;;;21.00;99.90;;;;;;8423147;28;20181;-71
2022/10/24 13:16:57;;;;;;;4.40;1.47;;;20.80;99.90;;;;;;8421937;28;20242;-71
2022/10/24 13:21:32;;;;;;;4.90;1.80;;;20.60;99.90;;;;;;8386452;28;20215;-70
2022/10/24 13:25:38;;;;;;;7.83;2.00;;;20.40;99.90;;;;;;8421318;28;20308;-71
2022/10/24 13:29:40;;;;;;;4.83;1.90;;;20.30;99.90;;;;;;8423904;28;20561;-70
2022/10/24 13:33:45;;;;;;;4.20;1.87;;;20.30;99.90;;;;;;8424503;28;20181;-71
2022/10/24 13:37:50;;;;;;;6.03;1.53;;;20.20;99.90;;;;;;8401812;28;20189;-70
2022/10/24 13:41:58;;;;;;;5.97;1.90;;;20.00;99.90;;;;;;8417278;28;20193;-70
2022/10/24 13:46:04;;;;;;;3.73;1.53;;;19.80;99.90;;;;;;8402486;28;20209;-70
2022/10/24 13:50:13;;;;;;;6.40;1.90;;;19.70;1.00;;;;;;8400748;28;20183;-71
2022/10/24 13:54:23;;;;;;;2.50;1.53;;;19.60;99.90;;;;;;8394484;28;20177;-69
2022/10/24 13:58:25;;;;;;;4.07;1.63;;;19.40;99.90;;;;;;8413820;28;20208;-71
2022/10/24 14:02:30;;;;;;;8.33;1.60;;;19.30;1.00;;;;;;8414658;28;20345;-70
2022/10/24 14:06:32;;;;;;;4.27;1.70;;;19.20;99.90;;;;;;8397930;28;20240;-71
2022/10/24 14:10:34;;;;;;;5.07;1.50;;;19.00;99.90;;;;;;8397918;28;20184;-70
2022/10/24 14:14:38;;;;;;;4.43;1.70;;;18.90;99.90;;;;;;8400884;28;20247;-70
2022/10/24 14:18:40;;;;;;;5.10;1.77;;;18.80;50.20;;;;;;8396479;28;20188;-70
2022/10/24 14:22:41;;;;;;;3.93;1.47;;;18.60;99.90;;;;;;8398432;28;20271;-71
2022/10/24 14:26:44;;;;;;;3.00;1.63;;;18.50;1.00;;;;;;8394627;28;20219;-74
2022/10/24 14:30:53;;;;;;;4.17;1.70;;;18.40;1.00;;;;;;8394080;28;20215;-72
2022/10/24 14:34:56;;;;;;;5.43;1.80;;;18.30;99.90;;;;;;8392006;28;20207;-70
2022/10/24 14:38:59;;;;;;;3.10;1.23;;;18.20;76.40;;;;;;8396412;28;20189;-72
2022/10/24 14:43:00;;;;;;;4.57;1.67;;;18.10;1.00;;;;;;8400738;28;20184;-70
2022/10/24 14:47:19;;;;;;;3.13;1.43;;;18.00;1.00;;;;;;8400876;28;20224;-71
2022/10/24 14:51:31;;;;;;;4.70;1.77;;;17.90;57.40;;;;;;8416256;28;20189;-71
2022/10/24 14:56:17;;;;;;;3.13;2.00;;;17.80;99.90;;;;;;8418658;28;20388;-71
2022/10/24 15:00:23;;;;;;;3.07;1.60;;;17.80;1.00;;;;;;8378625;28;20228;-72
2022/10/24 15:04:34;;;;;;;3.77;1.43;;;17.70;1.00;;;;;;8402723;28;20212;-71
2022/10/24 15:08:41;;;;;;;3.13;1.20;;;17.70;1.00;;;;;;8420125;28;20185;-71
2022/10/24 15:12:59;;;;;;;1.53;1.17;;;17.60;1.00;;;;;;8401150;28;20187;-71
2022/10/24 15:17:29;;;;;;;1.60;0.90;;;17.60;1.00;;;;;;8417672;28;20545;-71
2022/10/24 15:21:36;;;;;;;2.20;1.27;;;17.50;1.00;;;;;;8420577;28;20185;-70
2022/10/24 15:25:37;;;;;;;1.30;1.10;;;17.50;1.00;;;;;;8419198;28;20208;-72
2022/10/24 15:29:39;;;;;;;1.70;1.20;;;17.30;1.00;;;;;;8420675;28;20216;-71
2022/10/24 15:33:40;;;;;;;2.57;1.20;;;17.30;1.00;;;;;;8404617;28;20287;-71
2022/10/24 15:37:56;;;;;;;1.97;1.37;;;17.20;1.00;;;;;;8421861;28;20191;-72
2022/10/24 15:41:56;;;;;;;1.90;1.20;;;17.10;1.00;;;;;;8403151;28;20581;-70
2022/10/24 15:45:57;;;;;;;2.27;1.00;;;17.00;1.00;;;;;;8400701;28;20232;-71
2022/10/24 15:49:58;;;;;;;2.03;1.00;;;16.90;1.00;;;;;;8398430;28;20617;-71
2022/10/24 15:54:00;;;;;;;1.83;1.30;;;16.70;64.60;;;;;;8420028;28;20176;-71
2022/10/24 15:58:01;;;;;;;1.13;0.90;;;16.60;99.90;;;;;;8397863;28;20205;-71
2022/10/24 16:02:03;;;;;;;1.87;1.17;;;16.40;99.90;;;;;;8403534;28;20227;-71
2022/10/24 16:06:04;;;;;;;4.10;1.23;;;16.30;99.90;;;;;;8401487;28;20291;-70
2022/10/24 16:10:05;;;;;;;4.50;1.47;;;16.20;1.00;;;;;;8422405;28;20238;-72
2022/10/24 16:14:08;;;;;;;7.17;1.80;;;16.10;99.90;;;;;;8404089;28;20211;-71
2022/10/24 16:18:10;;;;;;;4.60;1.80;;;15.80;1.00;;;;;;8398818;28;20184;-74
2022/10/24 16:22:11;;;;;;;3.87;1.50;;;15.70;1.00;;;;;;8421422;28;20177;-71
2022/10/24 16:26:12;;;;;;;2.77;1.40;;;15.70;1.00;;;;;;8419401;28;20204;-72
2022/10/24 16:30:15;;;;;;;5.30;1.63;;;15.60;1.00;;;;;;8420081;28;20184;-71
2022/10/24 16:34:15;;;;;;;2.83;2.07;;;15.50;99.90;;;;;;8420631;28;20538;-71
2022/10/24 16:38:17;;;;;;;3.27;1.80;;;15.40;99.90;;;;;;8419880;28;20261;-70
2022/10/24 16:42:21;;;;;;;2.03;1.70;;;15.30;99.90;;;;;;8399958;28;20180;-70
2022/10/24 16:46:23;;;;;;;1.50;1.30;;;15.20;22.20;;;;;;8395068;28;20311;-71
2022/10/24 16:50:27;;;;;;;2.53;1.70;;;15.10;99.90;;;;;;8400628;28;20192;-71
2022/10/24 16:54:28;;;;;;;3.03;1.70;;;15.00;99.90;;;;;;8418506;28;20437;-71
2022/10/24 16:58:29;;;;;;;3.67;2.13;;;14.90;99.90;;;;;;8420630;28;20204;-71
2022/10/24 17:02:31;;;;;;;3.43;2.10;;;14.80;99.90;;;;;;8397692;28;20389;-71
2022/10/24 17:06:32;;;;;;;5.57;2.07;;;14.80;99.90;;;;;;8404460;28;20246;-71
2022/10/24 17:10:32;;;;;;;4.83;2.83;;;14.70;88.40;;;;;;8405385;28;20262;-71
2022/10/24 17:14:35;;;;;;;3.57;2.57;;;14.70;24.40;;;;;;8404559;28;20265;-71
2022/10/24 17:18:36;;;;;;;4.07;2.70;;;14.70;1.00;;;;;;8402497;28;20188;-70
2022/10/24 17:22:40;;;;;;;4.57;2.93;;;14.70;99.90;;;;;;8407138;28;20176;-71
2022/10/24 17:26:41;;;;;;;5.23;3.37;;;14.80;99.90;;;;;;8406364;28;20307;-71
2022/10/24 17:30:43;;;;;;;8.93;3.33;;;14.90;99.90;;;;;;8424777;28;20259;-71
2022/10/24 17:34:48;;;;;;;6.10;3.60;;;15.00;99.90;;;;;;8425663;28;20189;-72
2022/10/24 17:39:05;;;;;;;5.33;3.67;;;15.10;99.90;;;;;;8404915;28;20189;-71
2022/10/24 17:43:20;;;;;;;5.70;3.63;;;15.20;92.30;;;;;;8408745;28;20189;-71
2022/10/24 17:47:21;;;;;;;5.40;3.47;;;15.20;1.00;;;;;;8406672;28;20212;-70
2022/10/24 17:51:24;;;;;;;6.40;3.20;;;15.30;66.00;;;;;;8407975;28;20264;-74
2022/10/24 17:55:26;;;;;;;4.93;3.53;;;15.30;96.50;;;;;;8426214;28;20192;-71
2022/10/24 17:59:26;;;;;;;5.40;2.97;;;15.30;99.90;;;;;;8405339;28;20201;-71
2022/10/24 18:03:27;;;;;;;9.63;3.23;;;15.30;1.00;;;;;;8402887;28;20291;-70
2022/10/24 18:07:28;;;;;;;7.10;3.47;;;15.20;83.60;;;;;;8425065;28;20208;-70
2022/10/24 18:11:29;;;;;;;4.60;3.20;;;15.20;1.00;;;;;;8424804;28;20180;-69
2022/10/24 18:15:31;;;;;;;5.13;4.27;;;15.10;1.00;;;;;;8406160;28;20237;-71
2022/10/24 18:19:32;;;;;;;8.63;3.63;;;15.10;99.90;;;;;;8403415;28;20233;-71
2022/10/24 18:23:33;;;;;;;5.93;3.93;;;15.00;99.90;;;;;;8407091;28;20197;-70
2022/10/24 18:27:35;;;;;;;5.77;3.40;;;15.00;99.90;;;;;;8407822;28;20235;-70
2022/10/24 18:31:36;;;;;;;5.10;3.43;;;14.90;99.90;;;;;;8425548;28;20192;-71
2022/10/24 18:35:37;;;;;;;4.87;3.23;;;14.90;99.90;;;;;;8400989;28;20195;-71
2022/10/24 18:39:38;;;;;;;6.60;3.57;;;14.90;99.90;;;;;;8420330;28;20272;-70
2022/10/24 18:43:39;;;;;;;5.00;2.90;;;14.90;99.90;;;;;;8399904;28;20192;-71
2022/10/24 18:47:40;;;;;;;5.00;2.87;;;14.90;99.90;;;;;;8395283;28;20212;-71
2022/10/24 18:52:13;;;;;;;4.13;3.03;;;15.00;99.90;;;;;;8394935;28;20180;-71
2022/10/24 18:56:14;;;;;;;4.73;2.87;;;15.00;99.90;;;;;;8390026;28;20196;-72
2022/10/24 19:00:21;;;;;;;4.30;2.67;;;15.00;99.90;;;;;;8412545;28;20212;-71
2022/10/24 19:04:24;;;;;;;4.40;2.60;;;15.00;1.00;;;;;;8411199;28;20218;-70
2022/10/24 19:08:26;;;;;;;3.50;2.33;;;14.90;1.00;;;;;;8410752;28;20181;-71
2022/10/24 19:12:27;;;;;;;3.50;2.50;;;14.90;99.90;;;;;;8416339;28;20276;-71
2022/10/24 19:16:28;;;;;;;4.27;2.37;;;14.80;99.90;;;;;;8412640;28;20594;-72
2022/10/24 19:20:31;;;;;;;3.87;2.13;;;14.70;38.00;;;;;;8399468;28;20271;-70
2022/10/24 19:24:32;;;;;;;3.47;2.10;;;14.70;99.90;;;;;;8400461;28;20205;-71
2022/10/24 19:28:32;;;;;;;3.97;2.30;;;14.70;99.90;;;;;;8425796;28;20287;-71
2022/10/24 19:32:33;;;;;;;2.90;2.40;;;14.60;99.90;;;;;;8423295;28;20181;-71
2022/10/24 19:36:34;;;;;;;3.60;2.20;;;14.50;99.90;;;;;;8425049;28;20238;-70
2022/10/24 19:40:35;;;;;;;3.83;2.40;;;14.40;99.90;;;;;;8406763;28;20195;-69
2022/10/24 19:44:36;;;;;;;4.93;2.40;;;14.30;1.00;;;;;;8425111;28;20460;-71
2022/10/24 19:48:37;;;;;;;3.83;1.87;;;14.20;99.90;;;;;;8407613;28;20204;-71
2022/10/24 19:52:38;;;;;;;3.40;1.63;;;14.20;1.00;;;;;;8405048;28;20185;-71
2022/10/24 19:56:39;;;;;;;4.40;1.90;;;14.20;53.90;;;;;;8422788;28;20244;-70
2022/10/24 20:00:41;;;;;;;4.80;2.43;;;14.10;99.90;;;;;;8397252;28;20184;-70
2022/10/24 20:04:42;;;;;;;3.73;2.50;;;14.20;1.00;;;;;;8399478;28;20212;-71
2022/10/24 20:08:45;;;;;;;4.87;1.97;;;14.10;1.00;;;;;;8398928;28;20177;-72
2022/10/24 20:12:46;;;;;;;2.87;1.60;;;14.10;99.90;;;;;;8400729;28;20215;-70
2022/10/24 20:16:47;;;;;;;4.80;1.77;;;14.30;99.90;;;;;;8417694;28;20231;-69
2022/10/24 20:20:48;;;;;;;2.73;1.40;;;14.40;99.90;;;;;;8417024;28;20193;-71
2022/10/24 20:24:49;;;;;;;3.63;1.90;;;14.40;92.00;;;;;;8400323;28;20374;-71
2022/10/24 20:28:51;;;;;;;3.40;1.70;;;14.30;99.90;;;;;;8417582;28;20267;-71
2022/10/24 20:32:52;;;;;;;3.40;1.80;;;14.30;1.00;;;;;;8418032;28;20180;-70
2022/10/24 20:36:53;;;;;;;8.57;2.20;;;14.20;99.90;;;;;;8396117;28;20180;-71
2022/10/24 20:40:59;;;;;;;3.13;1.40;;;14.00;1.00;;;;;;8399669;28;20180;-71
2022/10/24 20:44:59;;;;;;;2.63;1.83;;;13.90;99.90;;;;;;8398294;28;20200;-70
2022/10/24 20:49:00;;;;;;;2.03;1.77;;;13.90;1.00;;;;;;8418373;28;20216;-71
2022/10/24 20:53:02;;;;;;;4.27;1.60;;;13.80;99.90;;;;;;8417017;28;20180;-71
2022/10/24 20:57:03;;;;;;;3.90;1.90;;;13.70;99.90;;;;;;8402531;28;20200;-70
2022/10/24 21:01:05;;;;;;;2.83;1.80;;;13.60;99.90;;;;;;8398042;28;20271;-71
2022/10/24 21:05:08;;;;;;;2.77;1.80;;;13.60;1.00;;;;;;8399442;28;20204;-71
2022/10/24 21:09:09;;;;;;;2.47;1.77;;;13.50;1.00;;;;;;8414558;28;20172;-71
2022/10/24 21:13:10;;;;;;;3.87;2.10;;;13.40;4.30;;;;;;8398733;28;20188;-70
2022/10/24 21:17:10;;;;;;;3.60;2.10;;;13.30;1.00;;;;;;8414644;28;20184;-70